Timeline UpdatesTrip UpdatesNews PostsPvt Posts♥♥Travel TipsAdmin PostsConv PostsFollowed PostsChat RequestsBlog PostsPNR Posts

Disclaimer
Search
 
 
Fri Oct 24, 2014 23:34:19 ISTHomeTrainsΣChainsAtlasPNRForumGalleryNewsFAQTripsMembersLoginFeedback
No Recent News for this Train
Other Trains in the News **new
Latest...
Last run over.
Tue Jul 01, 2014 (04:19PM)
⇐ Return Journey: Train# 13112

13111/Lal Quila Express

TRAIN IS CANCELLED
Change Departure Station:
Change Arrival Station:
Post a Train Travel TipPost a Train Travel Tip **new
Post a Comment/Question/Picture/VideoPost a Comment/Question/Picture/Video
Pantry/Catering
✕ NO Pantry Car
✓ Catering Avbl
RSA - Rake Sharing
Rake/Coach Composition
LOCO-S1-B1-SLR-GEN-S2-S3-S4-B2-GEN-GEN-RMS-SLR [S1,B1 detached at MDP] ; :Entry# 618089-32
Loco
WAP4 HOWRAH/GHAZIABAD SHED
News    PNR    Forum    Time-Table    Availability    Fare Chart    Map    Arr/Dep History    Trips    Gallery    ΣChains    X/O    Timeline    
Travel Time: 3h 12m    3 halts    Distance: 205 km    Avg Speed: 64 km/hr
Type: Mail/Express
Zone: ER/Eastern
Departs @ 20:15
Platform# 3
SMTWTFS
Kolkata Chitpur/KOAA 
Arrives @ 23:27
Platform# 4
SMTWTFS
Asansol Junction/ASN 

3 halts. 58 intermediate Stations between Kolkata Chitpur and Asansol Junction

Show ALL intermediate Stations  

#TrkCodeStation NameX/OArrivesAvgDepartsAvgHaltPFDay#KmSpeedElevZoneAddress
1/==/KOAAKolkata Chitpur (5)»  -20:15-310.0326mERKolkata, West Bengal
2/==/DAKEDakhineswar (2)  20:34-20:35-1m1110.06410mERDist - 24 paraganas ( North ), West Bengal
3/==/BWNBarddhaman Junction (8)  21:58-22:03-5m1198.78434mERDist - Barddhaman, West Bengal
4/==/RNGRaniGanj (4)  23:06-23:07-1m21186.55492mERRaniganj, West Bengal
5/==/ASNAsansol Junction (7)•  23:27-23:32-5m41204.650113mERDist - Bardhaman, West Bengal
6/==/CRJChittaranjan (3)  00:02-00:03-1m32229.866182mERMihijam, Jharkhand
7/==/JMTJamtara (2)  00:16-00:17-1m12244.159201mERJamtara, Jharkhand
8/==/MDPMadhupur Junction (4)01:00-01:40-40m22286.173254mER06432-224478, Jharkhand
9/==/JSMEJasidih Junction (5)  02:04-02:09-5m22315.252271mERJasidih, Jharkhand
10/==/JAJJhajha (4)  03:00-03:05-5m--2359.374143mECRJhajha, Bihar
11/==/JMUJamui (2)  03:26-03:27-1m--2385.36881mECRState Highway 72, Bihar
12/==/KIULKiul Junction (5)  03:51-03:55-4m--2412.61253mECRDist. Lakhisarai, Bihar
13/==/LKRLuckeesarai Junction (2)  04:02-04:03-1m--2414.06552mECRLakhisarai, Bihar
14/==/BRYABarhiya (3)  04:17-04:18-1m--2429.05947mECRBarahiya, Bihar
15/==/MKAMokama Junction (4)  04:36-04:40-4m--2446.88648mECRPatna, Bihar
16/==/BARHBarh (3)  04:58-04:59-1m--2472.56849mECRBarh, Bihar
17/==/BKPBakhtiyarpur Junction (5)  05:15-05:19-4m--2490.67851mECRPatna, Bihar
18/==/FUTFatwa (6)  05:37-05:38-1m--2513.94653mECRPatna, Bihar
19/==/BKGBanka Ghat (2)  05:46-05:47-1m--2520.05356mECRPatna, Bihar
20/==/PNCPatna Saheb (3)  05:54-05:55-1m--2526.22059mECRPatna 800008, Bihar
21/==/GZHGulzarbagh (3)  06:04-06:05-1m--2529.22855mECRPatna, Bihar
22/==/RJPBRajendra Nagar Bihar (4)  06:14-06:16-2m--2533.4555mECRPatna 800001, Bihar
23/==/PNBEPatna Junction (10)  06:50-07:00-10m42536.03857mECRPatna 800001, Bihar
24/==/DNRDanapur (5)  07:15-07:35-20m--2545.48758mECRKhagaul, Bihar
25/==/BTABihta (2)  07:47-07:48-1m--2562.85862mECRDistt: Patna, Bihar
26/==/KWRKoelwar (2)  07:57-07:58-1m--2571.54365mECRNational Highway 30, Bihar
27/==/KUAKulharia (2)  08:03-08:04-1m--2575.15461mECRChandi Sahar Rd, Bihar
28/==/ARAAra Junction (3)  08:15-08:20-5m--2585.09263mECRDistt: Bhojpur Ph 06182-233411, Bihar
29/==/BEABihiya (3)  08:34-08:35-1m--2606.45167mECRBehea, Bihar
30/==/BYNBanahi (2)  08:42-08:43-1m--2612.35967mECRBanahi, Bihar
31/==/RPRRaghunathpur (4)  08:52-08:53-1m--2621.27469mECRRaghunathpur, Bihar
32/==/DUREDumraon (3)  09:06-09:07-1m--2637.12970mECRDumraon, Bihar
33/==/BXRBuxar (3)  09:41-09:46-5m22653.57367mECRBuxar, Bihar
34/==/CSAChausa (2)  09:55-09:56-1m--2664.44368mECRState Highway 14, Bihar
35/==/GMRGahmar (2)  10:09-10:10-1m--2673.63868mECRDistt: Ghazipur, Uttar Pradesh
36/==/BWHBhadaura (2)  10:23-10:24-1m--2681.84769mECRGhazipur, Uttar Pradesh
37/==/DLNDildarnagar Junction (2)  10:34-10:36-2m--2689.74072mECRDildarnagar, Uttar Pradesh
38/==/ZNAZamania (2)  10:56-10:57-1m--2703.23877mECRGhazipur, Uttar Pradesh
39/==/MGSMughal Sarai Junction (8)  12:07-12:27-20m42747.45383mECRDistt: Chandauli Pin 232101, Uttar Pradesh
40/==/CARChunar Junction (5)  13:03-13:04-1m22779.35485mNCRChunar Junction, Uttar Pradesh
41/==/MZPMirzapur (3)  13:39-13:40-1m--2810.64088mNCRMirzapur, Uttar Pradesh
42/==/BDLVindhyachal (3)  13:51-13:52-1m--2817.97288mNCRMirzapur, Uttar Pradesh
43/==/MNFManda Road  14:15-14:16-1m--2845.46593mNCRNH 76, Uttar Pradesh
44/==/MJAMeja Road (4)  14:31-14:32-1m--2861.67294mNCRDistrict Allahabad, Uttar Pradesh
45/==/NYNNaini Junction (4)  14:58-15:00-2m22892.62198mNCRAllahabad, Uttar Pradesh
46/==/ALDAllahabad Junction (10)  15:20-15:30-10m32899.860100mNCRAllahabad 211003, Uttar Pradesh
47/==/BREBharwari  16:07-16:08-1m--2936.864108mNCRBharwari, Uttar Pradesh
48/==/SROSirathu (2)  16:27-16:28-1m12957.078109mNCRSirathu, Uttar Pradesh
49/==/KGAKhaga (3)  16:47-16:48-1m--2981.867114mNCRFatehpur, Uttar Pradesh
50/==/RUBRasulabad  17:01-17:02-1m--2996.355118mNCRRasulabad, Uttar Pradesh
51/==/FTPFatehpur (3)  17:24-17:25-1m321016.569120mNCRFatehpur, Uttar Pradesh
52/==/MWHMalwan (2)  17:39-17:40-1m--21032.665122mNCRFatehpur, Uttar Pradesh
53/==/BKOBindki Road  17:54-17:55-1m--21047.853124mNCRFatehpur, Uttar Pradesh
54/==/KBNKarbigwan  18:09-18:10-1m--21060.145121mNCRFatehpur, Uttar Pradesh
55/==/CNBKanpur Central (10)  18:55-19:05-10m--21094.119128mNCRKANPUR-208 001, Uttar Pradesh
56/==/GOYGovindpuri Junction (2)  19:17-19:18-1m121097.846129mNCRKANPUR-208 006, Uttar Pradesh
57/==/PNKPanki (3)  19:28-19:29-1m--21105.578129mNCRKANPUR-208 020, Uttar Pradesh
58/==/PHDPhaphund (4)  20:24-20:25-1m321177.299146mNCRdist. Auraiya, Uttar Pradesh
59/==/ETWEtawah (5)  20:59-21:00-1m221233.385154mNCRDistt. Etawah, Uttar Pradesh
60/==/SKBShikohabad Junction (4)  21:39-21:40-1m321288.729166mNCRDistrict Firozabad, Uttar Pradesh
61/==/FZDFirozabad (4)  22:21-22:22-1m321308.643164mNCRFirozabad, Uttar Pradesh
62/==/TDLTundla Junction (5)  22:45-22:55-10m221325.282167mNCRDistt.Firozabad, Uttar Pradesh
63/==/HRSHathras Junction (3)  23:30-23:31-1m--21373.167183mNCRMahamaya Nagar(05722-242803), Uttar Pradesh
64/==/ALJNAligarh Junction (4)  23:58-00:03-5m321403.371192mNCRAligarh, Uttar Pradesh
65/==/KRJKhurja Junction (4)  00:40-00:45-5m231446.838199mNCRBulandshahr, Uttar Pradesh
66/==/GZBGhaziabad Junction (6)  02:23-02:25-2m531509.527217mNRGhaziabad, Uttar Pradesh
67/==/DLIOld Delhi Junction (16)  03:10--731529.5-219mNRNear Chandni Chowk Metro Station, Delhi NCT
Scroll to Top
Scroll to Bottom